createdAt,value
2019-05-23T00:01:18.489Z,20.41
2019-05-23T00:04:17.743Z,20.27
2019-05-23T00:07:12.355Z,20.11
2019-05-23T00:10:03.467Z,20.06
2019-05-23T00:12:54.027Z,19.92
2019-05-23T00:15:31.593Z,19.94
2019-05-23T00:18:04.639Z,20.12
2019-05-23T00:20:36.399Z,19.89
2019-05-23T00:23:08.761Z,19.94
2019-05-23T00:25:40.468Z,19.97
2019-05-23T00:28:11.386Z,19.98
2019-05-23T00:30:47.584Z,19.93
2019-05-23T00:33:21.211Z,19.80
2019-05-23T00:35:53.041Z,19.99
2019-05-23T00:38:23.668Z,19.88
2019-05-23T00:40:55.258Z,19.81
2019-05-23T00:43:27.560Z,19.77
2019-05-23T00:46:00.092Z,19.76
2019-05-23T00:48:31.566Z,19.80
2019-05-23T00:51:05.378Z,19.84
2019-05-23T00:53:36.768Z,19.80
2019-05-23T00:56:09.529Z,19.77
2019-05-23T00:58:40.964Z,19.63
2019-05-23T01:01:13.526Z,19.81
2019-05-23T01:03:43.813Z,19.75
2019-05-23T01:06:15.493Z,19.67
2019-05-23T01:08:46.383Z,19.54
2019-05-23T01:11:17.385Z,19.63
2019-05-23T01:13:47.816Z,19.58
2019-05-23T01:16:21.438Z,19.45
2019-05-23T01:18:52.010Z,19.51
2019-05-23T01:21:46.235Z,19.47
2019-05-23T01:24:25.495Z,19.39
2019-05-23T01:26:56.467Z,19.40
2019-05-23T01:29:37.402Z,19.26
2019-05-23T01:32:09.516Z,19.20
2019-05-23T01:34:39.956Z,19.26
2019-05-23T01:37:10.585Z,19.08
2019-05-23T01:39:41.168Z,19.16
2019-05-23T01:42:11.951Z,19.29
2019-05-23T01:44:42.678Z,19.24
2019-05-23T01:47:15.393Z,19.15
2019-05-23T01:49:45.902Z,19.18
2019-05-23T01:52:20.341Z,19.21
2019-05-23T01:54:50.759Z,19.23
2019-05-23T01:57:23.077Z,19.16
2019-05-23T02:00:08.122Z,19.07
2019-05-23T02:02:28.197Z,18.91
2019-05-23T02:04:59.229Z,18.99
2019-05-23T02:07:31.625Z,18.82
2019-05-23T02:10:01.878Z,18.90
2019-05-23T02:12:34.387Z,18.94
2019-05-23T02:15:05.398Z,18.84
2019-05-23T02:17:36.357Z,18.86
2019-05-23T02:20:07.890Z,18.85
2019-05-23T02:22:40.536Z,18.78
2019-05-23T02:25:12.914Z,18.78
2019-05-23T02:27:44.399Z,18.75
2019-05-23T02:30:33.313Z,18.81
2019-05-23T02:32:51.148Z,18.86
2019-05-23T02:35:21.416Z,18.82
2019-05-23T02:38:11.629Z,18.72
2019-05-23T02:41:13.112Z,18.75
2019-05-23T02:43:49.086Z,18.57
2019-05-23T02:46:34.549Z,18.49
2019-05-23T02:49:09.076Z,18.39
2019-05-23T02:51:40.425Z,18.38
2019-05-23T02:54:15.281Z,18.42
2019-05-23T02:56:46.030Z,18.53
2019-05-23T02:59:48.168Z,18.65
2019-05-23T03:02:58.767Z,18.32
2019-05-23T03:05:31.273Z,18.26
2019-05-23T03:08:07.994Z,18.29
2019-05-23T03:10:58.596Z,18.33
2019-05-23T03:13:32.497Z,18.37
2019-05-23T03:16:03.926Z,18.29
2019-05-23T03:18:41.580Z,18.30
2019-05-23T03:21:13.531Z,18.37
2019-05-23T03:23:44.750Z,18.33
2019-05-23T03:27:17.085Z,18.29
2019-05-23T03:29:48.081Z,18.13
2019-05-23T03:32:39.443Z,18.17
2019-05-23T03:35:15.009Z,18.13
2019-05-23T03:37:45.976Z,17.98
2019-05-23T03:40:16.808Z,17.97
2019-05-23T03:42:48.222Z,18.02
2019-05-23T03:45:23.966Z,18.13
2019-05-23T03:47:54.454Z,18.09
2019-05-23T03:50:29.283Z,18.12
2019-05-23T03:52:59.743Z,18.01
2019-05-23T03:55:32.814Z,17.99
2019-05-23T03:58:05.751Z,17.98
2019-05-23T04:00:43.830Z,18.03
2019-05-23T04:03:14.190Z,18.02
2019-05-23T04:05:45.606Z,18.07
2019-05-23T04:08:17.061Z,18.13
2019-05-23T04:10:51.609Z,17.85
2019-05-23T04:13:20.312Z,18.01
2019-05-23T04:15:50.484Z,17.97
2019-05-23T04:18:20.998Z,18.08
2019-05-23T04:20:51.636Z,18.12
2019-05-23T04:23:22.279Z,18.23
2019-05-23T04:25:52.502Z,18.24
2019-05-23T04:28:24.153Z,18.18
2019-05-23T04:30:54.580Z,18.11
2019-05-23T04:33:28.592Z,18.02
2019-05-23T04:35:58.923Z,17.97
2019-05-23T04:38:30.653Z,17.99
2019-05-23T04:41:01.102Z,18.01
2019-05-23T04:43:32.584Z,18.07
2019-05-23T04:46:03.205Z,18.13
2019-05-23T04:48:33.448Z,18.23
2019-05-23T04:51:06.910Z,18.26
2019-05-23T04:53:41.246Z,18.06
2019-05-23T04:56:14.327Z,18.14
2019-05-23T04:58:45.808Z,18.39
2019-05-23T05:01:17.637Z,18.27
2019-05-23T05:03:49.424Z,18.29
2019-05-23T05:06:20.296Z,18.32
2019-05-23T05:08:54.572Z,18.31
2019-05-23T05:11:24.714Z,18.46
2019-05-23T05:13:59.024Z,18.57
2019-05-23T05:16:29.567Z,18.53
2019-05-23T05:18:59.952Z,18.34
2019-05-23T05:21:30.128Z,18.39
2019-05-23T05:24:00.974Z,18.35
2019-05-23T05:26:31.424Z,18.41
2019-05-23T05:29:01.602Z,18.38
2019-05-23T05:31:33.842Z,18.31
2019-05-23T05:34:05.806Z,18.09
2019-05-23T05:36:41.374Z,18.33
2019-05-23T05:39:12.997Z,18.34
2019-05-23T05:41:43.193Z,18.32
2019-05-23T05:44:14.460Z,18.37
2019-05-23T05:46:45.734Z,18.50
2019-05-23T05:49:15.906Z,18.47
2019-05-23T05:51:48.078Z,18.36
2019-05-23T05:54:20.402Z,18.51
2019-05-23T05:56:51.040Z,18.78
2019-05-23T05:59:23.522Z,18.74
2019-05-23T06:01:54.574Z,18.71
2019-05-23T06:04:27.231Z,18.77
2019-05-23T06:07:29.052Z,18.97
2019-05-23T06:10:03.561Z,19.09
2019-05-23T06:12:33.969Z,19.14
2019-05-23T06:15:05.097Z,19.13
2019-05-23T06:17:36.458Z,19.08
2019-05-23T06:20:09.227Z,18.96
2019-05-23T06:22:40.635Z,18.75
2019-05-23T06:25:11.967Z,19.16
2019-05-23T06:27:43.040Z,19.13
2019-05-23T06:30:15.622Z,19.36
2019-05-23T06:32:48.775Z,19.43
2019-05-23T06:35:21.345Z,19.54
2019-05-23T06:37:51.958Z,19.55
2019-05-23T06:40:23.223Z,19.60
2019-05-23T06:42:53.601Z,19.68
2019-05-23T06:45:24.935Z,19.79
2019-05-23T06:47:55.927Z,19.46
2019-05-23T06:50:26.817Z,19.53
2019-05-23T06:52:58.589Z,19.67
2019-05-23T06:55:28.767Z,19.48
2019-05-23T06:57:59.026Z,20.07
2019-05-23T07:00:29.987Z,20.12
2019-05-23T07:03:01.801Z,20.10
2019-05-23T07:05:35.475Z,20.21
2019-05-23T07:08:06.087Z,20.35
2019-05-23T07:10:39.365Z,20.32
2019-05-23T07:13:09.746Z,20.27
2019-05-23T07:15:40.055Z,20.55
2019-05-23T07:18:10.270Z,20.61
2019-05-23T07:20:40.504Z,20.50
2019-05-23T07:23:13.034Z,20.79
2019-05-23T07:25:43.335Z,20.69
2019-05-23T07:28:13.498Z,20.92
2019-05-23T07:30:43.762Z,20.72
2019-05-23T07:33:14.795Z,20.49
2019-05-23T07:35:45.324Z,20.94
2019-05-23T07:38:15.565Z,21.20
2019-05-23T07:40:46.754Z,20.90
2019-05-23T07:43:17.331Z,21.31
2019-05-23T07:45:57.693Z,21.38
2019-05-23T07:48:28.880Z,21.38
2019-05-23T07:51:06.928Z,21.31
2019-05-23T07:53:46.501Z,21.08
2019-05-23T07:56:18.456Z,21.41
2019-05-23T07:58:49.095Z,21.71
2019-05-23T08:01:22.311Z,21.52
2019-05-23T08:03:53.054Z,21.90
2019-05-23T08:06:24.873Z,21.64
2019-05-23T08:08:55.326Z,21.79
2019-05-23T08:11:26.005Z,21.83
2019-05-23T08:13:56.970Z,21.89
2019-05-23T08:16:30.098Z,22.13
2019-05-23T08:19:00.625Z,22.00
2019-05-23T08:21:32.159Z,21.94
2019-05-23T08:24:02.438Z,22.28
2019-05-23T08:26:33.982Z,22.47
2019-05-23T08:29:24.712Z,22.63
2019-05-23T08:31:36.851Z,22.54
2019-05-23T08:34:07.364Z,22.39
2019-05-23T08:36:39.364Z,21.66
2019-05-23T08:39:10.630Z,22.13
2019-05-23T08:41:41.190Z,22.67
2019-05-23T08:44:11.953Z,22.38
2019-05-23T08:46:43.706Z,22.76
2019-05-23T08:49:14.342Z,22.70
2019-05-23T08:51:45.822Z,22.80
2019-05-23T08:54:17.608Z,22.90
2019-05-23T08:56:48.490Z,22.69
2019-05-23T08:59:18.663Z,23.02
2019-05-23T09:01:48.949Z,23.47
2019-05-23T09:04:19.500Z,23.50
2019-05-23T09:06:50.933Z,23.83
2019-05-23T09:09:29.523Z,23.72
2019-05-23T09:11:53.241Z,23.88
2019-05-23T09:14:23.803Z,23.97
2019-05-23T09:16:54.808Z,24.12
2019-05-23T09:19:24.960Z,24.06
2019-05-23T09:21:57.989Z,24.17
2019-05-23T09:24:27.611Z,24.23
2019-05-23T09:26:58.800Z,24.31
2019-05-23T09:29:29.264Z,24.26
2019-05-23T09:31:59.610Z,24.61
2019-05-23T09:34:30.688Z,24.63
2019-05-23T09:37:03.515Z,24.40
2019-05-23T09:39:36.807Z,24.97
2019-05-23T09:42:07.010Z,25.18
2019-05-23T09:44:37.383Z,25.35
2019-05-23T09:47:08.191Z,25.29
2019-05-23T09:49:39.556Z,25.52
2019-05-23T09:52:12.699Z,26.09
2019-05-23T09:54:44.344Z,25.79
2019-05-23T09:57:15.557Z,26.30
2019-05-23T09:59:45.716Z,25.29
2019-05-23T10:02:15.928Z,25.92
2019-05-23T10:04:48.116Z,25.76
2019-05-23T10:07:19.286Z,25.89
2019-05-23T10:09:51.012Z,26.18
2019-05-23T10:12:22.575Z,26.61
2019-05-23T10:14:53.020Z,25.98
2019-05-23T10:17:23.692Z,25.18
2019-05-23T10:19:53.979Z,26.06
2019-05-23T10:22:24.240Z,26.14
2019-05-23T10:24:54.418Z,26.44
2019-05-23T10:27:26.671Z,26.73
2019-05-23T10:29:56.884Z,26.96
2019-05-23T10:32:27.067Z,26.48
2019-05-23T10:34:57.234Z,25.99
2019-05-23T10:37:28.062Z,26.77
2019-05-23T10:39:58.469Z,27.10
2019-05-23T10:42:30.163Z,27.49
2019-05-23T10:45:00.438Z,26.96
2019-05-23T10:47:31.436Z,27.38
2019-05-23T10:50:07.617Z,28.00
2019-05-23T10:52:34.687Z,28.25
2019-05-23T10:55:06.582Z,28.56
2019-05-23T10:57:37.954Z,27.97
2019-05-23T11:00:10.879Z,28.28
2019-05-23T11:02:43.215Z,28.05
2019-05-23T11:05:14.439Z,27.99
2019-05-23T11:07:45.334Z,27.89
2019-05-23T11:10:17.168Z,28.28
2019-05-23T11:12:48.333Z,28.50
2019-05-23T11:15:19.500Z,28.42
2019-05-23T11:17:53.538Z,28.68
2019-05-23T11:20:22.753Z,28.73
2019-05-23T11:22:52.999Z,28.49
2019-05-23T11:25:24.542Z,29.14
2019-05-23T11:27:55.783Z,28.83
2019-05-23T11:30:32.030Z,28.87
2019-05-23T11:33:02.567Z,28.70
2019-05-23T11:35:32.895Z,29.00
2019-05-23T11:38:03.604Z,28.93
2019-05-23T11:40:34.053Z,29.05
2019-05-23T11:43:05.833Z,28.52
2019-05-23T11:45:46.047Z,27.87
2019-05-23T11:48:16.188Z,28.39
2019-05-23T11:50:46.925Z,28.11
2019-05-23T11:53:18.083Z,28.32
2019-05-23T11:55:53.997Z,28.68
2019-05-23T11:58:21.841Z,28.56
2019-05-23T12:01:21.206Z,28.48
2019-05-23T12:03:56.639Z,28.44
2019-05-23T12:06:29.832Z,28.29
2019-05-23T12:09:00.065Z,27.25
2019-05-23T12:11:35.525Z,28.08
2019-05-23T12:14:03.882Z,28.47
2019-05-23T12:16:34.114Z,28.96
2019-05-23T12:19:06.177Z,29.33
2019-05-23T12:21:36.825Z,29.60
2019-05-23T12:24:06.996Z,29.39
2019-05-23T12:26:37.165Z,28.09
2019-05-23T12:29:07.358Z,28.57
2019-05-23T12:31:38.251Z,29.34
2019-05-23T12:34:10.288Z,28.90
2019-05-23T12:36:41.013Z,29.69
2019-05-23T12:39:11.663Z,28.88
2019-05-23T12:41:43.652Z,29.64
2019-05-23T12:44:17.561Z,30.14
2019-05-23T12:46:47.270Z,30.72
2019-05-23T12:49:40.422Z,31.02
2019-05-23T12:52:11.956Z,29.98
2019-05-23T12:54:43.218Z,30.01
2019-05-23T12:57:14.152Z,29.10
2019-05-23T12:59:44.636Z,28.84
2019-05-23T13:02:22.804Z,28.27
2019-05-23T13:04:54.162Z,29.66
2019-05-23T13:07:35.583Z,29.05
2019-05-23T13:09:57.173Z,28.53
2019-05-23T13:12:27.853Z,29.61
2019-05-23T13:14:59.056Z,29.31
2019-05-23T13:17:30.659Z,30.31
2019-05-23T13:20:01.277Z,30.43
2019-05-23T13:22:32.588Z,31.12
2019-05-23T13:25:02.760Z,30.97
2019-05-23T13:27:34.577Z,31.48
2019-05-23T13:30:08.096Z,31.05
2019-05-23T13:32:38.403Z,30.18
2019-05-23T13:35:09.078Z,28.56
2019-05-23T13:37:53.248Z,30.42
2019-05-23T13:40:12.169Z,31.04
2019-05-23T13:42:42.596Z,31.27
2019-05-23T13:45:12.826Z,30.06
2019-05-23T13:47:43.910Z,30.87
2019-05-23T13:50:16.923Z,30.92
2019-05-23T13:52:48.157Z,31.01
2019-05-23T13:55:18.716Z,30.65
2019-05-23T13:57:49.849Z,30.53
2019-05-23T14:00:22.711Z,30.41
2019-05-23T14:02:53.124Z,31.27
2019-05-23T14:05:25.036Z,31.68
2019-05-23T14:08:10.775Z,31.69
2019-05-23T14:10:28.520Z,31.35
2019-05-23T14:12:58.653Z,30.95
2019-05-23T14:15:35.144Z,30.69
2019-05-23T14:18:05.363Z,30.39
2019-05-23T14:20:36.931Z,30.28
2019-05-23T14:23:27.508Z,30.27
2019-05-23T14:25:58.393Z,30.60
2019-05-23T14:28:30.413Z,32.00
2019-05-23T14:31:06.489Z,32.50
2019-05-23T14:33:44.805Z,32.41
2019-05-23T14:36:23.131Z,31.70
2019-05-23T14:38:55.140Z,30.73
2019-05-23T14:41:43.766Z,30.68
2019-05-23T14:43:59.585Z,30.85
2019-05-23T14:46:33.302Z,31.38
2019-05-23T14:49:11.504Z,32.75
2019-05-23T14:51:49.338Z,33.64
2019-05-23T14:54:26.015Z,33.97
2019-05-23T14:56:56.608Z,33.42
2019-05-23T14:59:28.480Z,32.97
2019-05-23T15:01:58.700Z,33.02
2019-05-23T15:04:29.744Z,33.62
2019-05-23T15:07:00.385Z,34.46
2019-05-23T15:09:30.502Z,34.71
2019-05-23T15:12:00.856Z,35.67
2019-05-23T15:14:31.519Z,34.16
2019-05-23T15:17:01.671Z,33.94
2019-05-23T15:19:40.463Z,33.53
2019-05-23T15:22:03.789Z,33.31
2019-05-23T15:24:34.406Z,33.15
2019-05-23T15:27:05.312Z,32.75
2019-05-23T15:29:35.481Z,32.29
2019-05-23T15:32:06.061Z,32.16
2019-05-23T15:34:36.216Z,32.07
2019-05-23T15:37:06.393Z,31.68
2019-05-23T15:39:37.311Z,31.95
2019-05-23T15:42:08.403Z,31.88
2019-05-23T15:44:38.670Z,31.41
2019-05-23T15:47:09.040Z,31.25
2019-05-23T15:49:40.867Z,31.12
2019-05-23T15:52:46.196Z,31.02
2019-05-23T15:55:40.259Z,30.85
2019-05-23T15:58:15.196Z,30.29
2019-05-23T16:01:11.969Z,30.22
2019-05-23T16:03:47.863Z,30.21
2019-05-23T16:06:21.166Z,29.98
2019-05-23T16:08:51.531Z,29.59
2019-05-23T16:11:21.756Z,29.25
2019-05-23T16:13:52.431Z,28.25
2019-05-23T16:16:23.200Z,28.96
2019-05-23T16:18:53.858Z,28.95
2019-05-23T16:21:24.506Z,29.20
2019-05-23T16:23:54.644Z,28.84
2019-05-23T16:26:25.884Z,28.88
2019-05-23T16:28:56.538Z,28.78
2019-05-23T16:31:26.670Z,28.33
2019-05-23T16:33:56.926Z,28.42
2019-05-23T16:36:27.084Z,28.45
2019-05-23T16:38:57.339Z,28.27
2019-05-23T16:41:27.615Z,28.29
2019-05-23T16:43:58.442Z,28.26
2019-05-23T16:46:28.691Z,28.14
2019-05-23T16:48:59.060Z,28.27
2019-05-23T16:51:29.437Z,28.23
2019-05-23T16:54:01.927Z,28.11
2019-05-23T16:56:41.862Z,28.05
2019-05-23T16:59:26.557Z,28.37
2019-05-23T17:02:14.692Z,28.09
2019-05-23T17:05:08.617Z,28.10
2019-05-23T17:07:45.447Z,28.22
2019-05-23T17:10:34.178Z,28.21
2019-05-23T17:13:09.166Z,28.12
2019-05-23T17:15:54.137Z,27.98
2019-05-23T17:18:49.849Z,28.08
2019-05-23T17:21:26.913Z,28.10
2019-05-23T17:24:10.062Z,28.00
2019-05-23T17:26:54.353Z,28.04
2019-05-23T17:29:35.437Z,28.20
2019-05-23T17:32:09.041Z,28.03
2019-05-23T17:34:39.192Z,27.98
2019-05-23T17:37:11.826Z,27.99
2019-05-23T17:39:43.889Z,27.90
2019-05-23T17:42:14.603Z,27.60
2019-05-23T17:44:44.814Z,27.64
2019-05-23T17:47:15.086Z,27.49
2019-05-23T17:49:46.345Z,27.47
2019-05-23T17:52:18.423Z,27.48
2019-05-23T17:54:48.591Z,27.41
2019-05-23T17:57:19.061Z,27.37
2019-05-23T17:59:49.452Z,27.35
2019-05-23T18:02:21.778Z,27.32
2019-05-23T18:04:52.504Z,27.32
2019-05-23T18:07:24.903Z,27.15
2019-05-23T18:09:55.404Z,27.13
2019-05-23T18:12:26.116Z,27.07
2019-05-23T18:14:57.915Z,26.88
2019-05-23T18:17:28.714Z,26.93
2019-05-23T18:19:58.886Z,26.90
2019-05-23T18:22:30.748Z,26.83
2019-05-23T18:25:01.754Z,26.77
2019-05-23T18:27:33.368Z,26.67
2019-05-23T18:30:05.977Z,26.83
2019-05-23T18:32:36.953Z,26.60
2019-05-23T18:35:09.336Z,26.57
2019-05-23T18:37:40.064Z,26.54
2019-05-23T18:40:11.070Z,26.50
2019-05-23T18:42:42.441Z,26.39
2019-05-23T18:45:13.709Z,26.28
2019-05-23T18:47:43.888Z,26.27
2019-05-23T18:50:15.710Z,26.23
2019-05-23T18:52:47.753Z,26.22
2019-05-23T18:55:18.582Z,26.06
2019-05-23T18:57:49.334Z,26.01
2019-05-23T19:00:23.134Z,25.91
2019-05-23T19:02:56.596Z,25.97
2019-05-23T19:05:27.685Z,25.86
2019-05-23T19:07:59.459Z,25.75
2019-05-23T19:10:29.880Z,25.71
2019-05-23T19:13:00.808Z,25.67
2019-05-23T19:15:31.301Z,25.52
2019-05-23T19:18:01.538Z,25.46
2019-05-23T19:20:31.869Z,25.52
2019-05-23T19:23:03.178Z,25.35
2019-05-23T19:25:35.500Z,25.26
2019-05-23T19:28:07.659Z,25.33
2019-05-23T19:30:38.121Z,25.28
2019-05-23T19:33:09.296Z,25.28
2019-05-23T19:35:41.662Z,25.22
2019-05-23T19:38:12.554Z,25.17
2019-05-23T19:40:45.002Z,25.09
2019-05-23T19:43:15.769Z,25.09
2019-05-23T19:45:47.837Z,24.98
2019-05-23T19:48:19.090Z,24.97
2019-05-23T19:50:50.608Z,24.86
2019-05-23T19:53:20.874Z,24.82
2019-05-23T19:55:52.130Z,24.80
2019-05-23T19:58:24.045Z,24.74
2019-05-23T20:00:55.628Z,24.69
2019-05-23T20:03:27.578Z,24.60
2019-05-23T20:05:58.052Z,24.65
2019-05-23T20:08:28.648Z,24.59
2019-05-23T20:10:59.507Z,24.49
2019-05-23T20:13:29.760Z,24.50
2019-05-23T20:16:00.431Z,24.38
2019-05-23T20:18:31.571Z,24.38
2019-05-23T20:21:02.421Z,24.34
2019-05-23T20:23:32.590Z,24.36
2019-05-23T20:26:07.860Z,24.27
2019-05-23T20:28:39.766Z,24.23
2019-05-23T20:31:10.420Z,24.12
2019-05-23T20:33:40.857Z,24.16
2019-05-23T20:36:13.289Z,24.12
2019-05-23T20:38:44.289Z,23.99
2019-05-23T20:41:15.478Z,24.04
2019-05-23T20:43:45.625Z,24.01
2019-05-23T20:46:19.191Z,23.84
2019-05-23T20:48:49.728Z,23.89
2019-05-23T20:51:20.383Z,23.78
2019-05-23T20:53:50.858Z,23.75
2019-05-23T20:56:27.264Z,23.75
2019-05-23T20:58:57.434Z,23.74
2019-05-23T21:01:34.812Z,23.70
2019-05-23T21:04:07.000Z,23.68
2019-05-23T21:06:38.787Z,23.70
2019-05-23T21:09:10.183Z,23.64
2019-05-23T21:11:41.740Z,23.61
2019-05-23T21:14:13.346Z,23.58
2019-05-23T21:16:45.507Z,23.59
2019-05-23T21:19:17.029Z,23.54
2019-05-23T21:21:49.166Z,23.57
2019-05-23T21:24:20.546Z,23.53
2019-05-23T21:26:51.092Z,23.48
2019-05-23T21:29:22.224Z,23.48
2019-05-23T21:31:54.549Z,23.43
2019-05-23T21:34:25.432Z,23.42
2019-05-23T21:36:56.216Z,23.45
2019-05-23T21:39:28.231Z,23.40
2019-05-23T21:41:58.426Z,23.32
2019-05-23T21:44:28.572Z,23.33
2019-05-23T21:47:01.027Z,23.36
2019-05-23T21:49:32.056Z,23.20
2019-05-23T21:52:02.323Z,23.24
2019-05-23T21:54:32.489Z,23.21
2019-05-23T21:57:02.685Z,23.19
2019-05-23T21:59:34.959Z,23.15
2019-05-23T22:02:13.818Z,23.06
2019-05-23T22:04:52.557Z,23.12
2019-05-23T22:07:22.857Z,23.04
2019-05-23T22:09:53.175Z,23.06
2019-05-23T22:12:24.044Z,23.03
2019-05-23T22:14:56.642Z,23.04
2019-05-23T22:17:27.349Z,22.96
2019-05-23T22:19:58.924Z,23.00
2019-05-23T22:22:29.651Z,22.99
2019-05-23T22:24:59.906Z,23.00
2019-05-23T22:27:30.134Z,22.94
2019-05-23T22:30:00.318Z,22.89
2019-05-23T22:32:32.749Z,22.89
2019-05-23T22:35:06.538Z,22.88
2019-05-23T22:37:36.812Z,22.86
2019-05-23T22:40:09.703Z,22.91
2019-05-23T22:42:41.090Z,22.71
2019-05-23T22:45:15.111Z,22.81
2019-05-23T22:47:46.026Z,22.83
2019-05-23T22:50:16.206Z,22.82
2019-05-23T22:52:46.393Z,22.84
2019-05-23T22:55:17.823Z,22.77
2019-05-23T22:57:48.464Z,22.83
2019-05-23T23:00:26.029Z,22.75
2019-05-23T23:02:56.581Z,22.87
2019-05-23T23:05:28.512Z,22.83
2019-05-23T23:08:01.701Z,22.81
2019-05-23T23:10:33.369Z,22.76
2019-05-23T23:13:03.522Z,22.88
2019-05-23T23:15:35.425Z,22.79
2019-05-23T23:18:06.897Z,22.79
2019-05-23T23:20:37.100Z,22.88
2019-05-23T23:23:08.089Z,22.81
2019-05-23T23:25:39.585Z,22.85
2019-05-23T23:28:14.478Z,22.81
2019-05-23T23:30:46.400Z,22.78
2019-05-23T23:33:16.633Z,22.72
2019-05-23T23:35:49.316Z,22.81
2019-05-23T23:38:19.953Z,22.70
2019-05-23T23:40:50.794Z,22.69
2019-05-23T23:43:20.968Z,22.58
2019-05-23T23:46:08.906Z,22.74
2019-05-23T23:48:57.391Z,22.63
2019-05-23T23:51:45.306Z,22.56
2019-05-23T23:54:33.730Z,22.58
2019-05-23T23:57:23.095Z,22.40
2019-05-23T23:59:53.166Z,22.45
